Time;durP1;ratioP1;P1;durP2;ratioP2;P2;SDS_P1;SDS_P2;PMS_P1;PMS_P2;Temp;Humidity;BMP_temperature;BMP_pressure;BME280_temperature;BME280_humidity;BME280_pressure;Samples;Min_cycle;Max_cycle;Signal;HPM_P1;HPM_P2
2022/11/14 00:02:24;;;;;;;28.70;16.90;;;11.70;99.90;;;;;;5086960;28;20024;-55
2022/11/14 00:04:50;;;;;;;32.67;16.98;;;11.70;99.90;;;;;;5090912;28;20397;-50
2022/11/14 00:07:15;;;;;;;32.25;17.13;;;11.70;99.90;;;;;;5091544;28;20420;-46
2022/11/14 00:09:41;;;;;;;31.48;17.83;;;11.70;99.90;;;;;;5091012;28;20464;-48
2022/11/14 00:12:11;;;;;;;32.80;18.65;;;11.80;99.90;;;;;;5091262;28;20553;-52
2022/11/14 00:14:37;;;;;;;36.13;18.63;;;11.90;99.90;;;;;;5090063;28;20065;-49
2022/11/14 00:17:04;;;;;;;31.58;18.63;;;11.90;99.90;;;;;;5091044;28;20060;-56
2022/11/14 00:19:30;;;;;;;31.52;18.50;;;11.90;99.90;;;;;;5090635;28;20480;-47
2022/11/14 00:21:55;;;;;;;37.75;19.85;;;12.00;99.90;;;;;;5090706;28;20088;-54
2022/11/14 00:24:21;;;;;;;32.50;18.40;;;12.10;99.90;;;;;;5089781;28;20030;-47
2022/11/14 00:26:47;;;;;;;37.83;21.30;;;12.10;99.90;;;;;;5090314;28;20065;-54
2022/11/14 00:29:14;;;;;;;39.92;20.13;;;12.20;99.90;;;;;;5088163;28;20102;-47
2022/11/14 00:31:40;;;;;;;55.30;29.75;;;12.20;99.90;;;;;;5090718;28;20090;-58
2022/11/14 00:34:06;;;;;;;36.55;20.05;;;12.30;99.90;;;;;;5091207;28;20020;-53
2022/11/14 00:36:33;;;;;;;35.70;20.38;;;12.30;99.90;;;;;;5090830;28;20369;-44
2022/11/14 00:38:58;;;;;;;34.90;20.17;;;12.30;99.90;;;;;;5090756;28;20500;-52
2022/11/14 00:41:24;;;;;;;38.13;20.45;;;12.30;99.90;;;;;;5090880;28;20019;-47
2022/11/14 00:43:50;;;;;;;40.88;21.25;;;12.30;99.90;;;;;;5082332;28;20028;-48
2022/11/14 00:46:16;;;;;;;34.50;20.42;;;12.30;99.90;;;;;;5088479;28;20434;-54
2022/11/14 00:48:41;;;;;;;35.50;20.30;;;12.40;99.90;;;;;;5088549;28;20038;-47
2022/11/14 00:51:07;;;;;;;34.35;20.48;;;12.30;99.90;;;;;;5085714;28;20085;-51
2022/11/14 00:53:33;;;;;;;33.40;18.92;;;12.30;99.90;;;;;;5074765;28;20115;-45
2022/11/14 00:55:59;;;;;;;35.65;20.20;;;12.30;99.90;;;;;;5080106;28;20039;-50
2022/11/14 00:58:24;;;;;;;33.95;20.55;;;12.30;99.90;;;;;;5078515;28;20032;-53
2022/11/14 01:00:51;;;;;;;33.03;19.17;;;12.30;99.90;;;;;;5077323;28;20409;-43
2022/11/14 01:03:17;;;;;;;33.92;19.17;;;12.40;99.90;;;;;;5075391;28;20489;-48
2022/11/14 01:05:46;;;;;;;32.83;19.88;;;12.40;99.90;;;;;;5082653;28;20050;-43
2022/11/14 01:08:13;;;;;;;34.05;18.95;;;12.40;99.90;;;;;;5088546;28;20090;-46
2022/11/14 01:10:40;;;;;;;34.90;19.27;;;12.40;99.90;;;;;;5089186;28;20425;-48
2022/11/14 01:13:06;;;;;;;30.67;19.02;;;12.40;99.90;;;;;;5089170;28;20538;-47
2022/11/14 01:15:32;;;;;;;32.45;18.80;;;12.40;99.90;;;;;;5089503;28;20020;-44
2022/11/14 01:17:57;;;;;;;32.55;20.48;;;12.40;99.90;;;;;;5090055;28;20009;-46
2022/11/14 01:20:23;;;;;;;32.88;19.38;;;12.30;99.90;;;;;;5089579;28;20535;-47
2022/11/14 01:22:48;;;;;;;33.38;19.98;;;12.40;99.90;;;;;;5088576;28;20028;-51
2022/11/14 01:25:14;;;;;;;32.17;19.15;;;12.30;99.90;;;;;;5089748;28;20424;-48
2022/11/14 01:27:40;;;;;;;42.80;20.67;;;12.40;99.90;;;;;;5089651;28;20024;-42
2022/11/14 01:30:06;;;;;;;37.53;20.08;;;12.40;99.90;;;;;;5090112;28;20028;-53
2022/11/14 01:32:31;;;;;;;31.20;18.20;;;12.30;99.90;;;;;;5090572;28;20158;-44
2022/11/14 01:34:57;;;;;;;34.33;20.00;;;12.30;99.90;;;;;;5092632;28;20095;-50
2022/11/14 01:37:23;;;;;;;34.58;19.88;;;12.30;99.90;;;;;;5093675;28;20053;-45
2022/11/14 01:39:48;;;;;;;36.92;21.58;;;12.30;99.90;;;;;;5090657;28;20023;-45
2022/11/14 01:42:14;;;;;;;34.15;20.27;;;12.40;99.90;;;;;;5093539;28;20400;-45
2022/11/14 01:44:43;;;;;;;37.08;21.02;;;12.40;99.90;;;;;;5090107;28;20047;-49
2022/11/14 01:47:10;;;;;;;41.40;22.43;;;12.40;99.90;;;;;;5093187;28;20039;-43
2022/11/14 01:49:43;;;;;;;37.17;21.77;;;12.40;99.90;;;;;;5095363;28;20118;-46
2022/11/14 01:52:25;;;;;;;37.55;21.10;;;12.30;99.90;;;;;;5093311;28;20491;-45
2022/11/14 01:54:53;;;;;;;42.40;22.38;;;12.30;99.90;;;;;;5092655;28;20028;-47
2022/11/14 01:57:28;;;;;;;40.33;22.85;;;12.30;99.90;;;;;;5090800;28;20024;-45
2022/11/14 01:59:57;;;;;;;36.90;22.27;;;12.30;99.90;;;;;;5092100;28;20031;-45
2022/11/14 02:02:24;;;;;;;39.85;22.23;;;12.30;99.90;;;;;;5091288;28;20027;-46
2022/11/14 02:05:14;;;;;;;39.88;22.13;;;12.40;99.90;;;;;;5090077;28;20738;-46
2022/11/14 02:07:41;;;;;;;42.95;23.33;;;12.30;99.90;;;;;;5091156;28;20036;-48
2022/11/14 02:10:24;;;;;;;40.20;23.00;;;12.40;99.90;;;;;;5093275;28;20111;-51
2022/11/14 02:12:50;;;;;;;40.40;21.83;;;12.40;99.90;;;;;;5091927;28;20500;-45
2022/11/14 02:15:16;;;;;;;43.35;22.65;;;12.40;99.90;;;;;;5091124;28;20047;-46
2022/11/14 02:17:43;;;;;;;46.72;23.40;;;12.40;99.90;;;;;;5091223;28;20105;-44
2022/11/14 02:20:09;;;;;;;40.25;21.90;;;12.40;99.90;;;;;;5091016;28;20024;-43
2022/11/14 02:22:34;;;;;;;39.17;21.05;;;12.40;99.90;;;;;;5091231;28;20031;-43
2022/11/14 02:25:00;;;;;;;41.97;20.83;;;12.40;99.90;;;;;;5091145;28;20027;-55
2022/11/14 02:27:27;;;;;;;42.78;21.42;;;12.40;99.90;;;;;;5090370;28;20087;-50
2022/11/14 02:29:52;;;;;;;38.45;20.67;;;12.40;99.90;;;;;;5091475;28;20024;-53
2022/11/14 02:32:18;;;;;;;39.63;21.83;;;12.40;99.90;;;;;;5092828;28;20139;-48
2022/11/14 02:34:43;;;;;;;40.13;20.52;;;12.30;99.90;;;;;;5092831;28;20039;-50
2022/11/14 02:37:09;;;;;;;37.42;20.58;;;12.30;99.90;;;;;;5093237;28;20024;-51
2022/11/14 02:39:35;;;;;;;34.40;19.35;;;12.30;99.90;;;;;;5092829;28;20484;-57
2022/11/14 02:42:00;;;;;;;34.00;18.60;;;12.30;99.90;;;;;;5091828;28;20028;-44
2022/11/14 02:44:26;;;;;;;31.05;17.70;;;12.30;99.90;;;;;;5090900;28;20421;-49
2022/11/14 02:46:52;;;;;;;31.83;17.85;;;12.30;99.90;;;;;;5091730;28;20366;-47
2022/11/14 02:49:17;;;;;;;30.55;19.10;;;12.30;99.90;;;;;;5104355;28;20027;-47
2022/11/14 02:51:43;;;;;;;31.05;18.55;;;12.30;99.90;;;;;;5101968;28;20031;-46
2022/11/14 02:54:08;;;;;;;38.15;19.27;;;12.20;99.90;;;;;;5112836;28;20016;-49
2022/11/14 02:56:34;;;;;;;33.40;19.13;;;12.30;99.90;;;;;;5101005;28;20089;-45
2022/11/14 02:59:00;;;;;;;36.20;19.38;;;12.30;99.90;;;;;;5112899;28;20035;-46
2022/11/14 03:01:25;;;;;;;33.53;19.73;;;12.30;99.90;;;;;;5101272;28;20385;-49
2022/11/14 03:03:51;;;;;;;35.78;19.17;;;12.20;99.90;;;;;;5112128;28;20042;-51
2022/11/14 03:06:17;;;;;;;31.58;18.70;;;12.20;99.90;;;;;;5103086;28;20028;-44
2022/11/14 03:08:42;;;;;;;33.50;19.63;;;12.20;99.90;;;;;;5110008;28;20304;-45
2022/11/14 03:11:09;;;;;;;36.20;19.70;;;12.20;99.90;;;;;;5102840;28;20054;-51
2022/11/14 03:13:35;;;;;;;34.75;19.80;;;12.20;99.90;;;;;;5104530;28;20039;-53
2022/11/14 03:16:09;;;;;;;35.90;19.90;;;12.30;99.90;;;;;;5089590;28;20032;-48
2022/11/14 03:18:35;;;;;;;34.08;19.08;;;12.30;99.90;;;;;;5082820;28;20079;-49
2022/11/14 03:21:08;;;;;;;29.98;18.63;;;12.30;99.90;;;;;;5093821;28;20036;-47
2022/11/14 03:23:34;;;;;;;33.38;18.80;;;12.20;99.90;;;;;;5112421;28;20065;-46
2022/11/14 03:26:01;;;;;;;35.85;20.08;;;12.20;99.90;;;;;;5109647;28;20028;-49
2022/11/14 03:28:27;;;;;;;31.15;17.83;;;12.20;99.90;;;;;;5112230;28;20028;-46
2022/11/14 03:30:53;;;;;;;35.75;19.98;;;12.20;99.90;;;;;;5108322;28;20492;-51
2022/11/14 03:33:18;;;;;;;38.78;19.77;;;12.20;99.90;;;;;;5112142;28;20028;-49
2022/11/14 03:35:44;;;;;;;35.05;18.35;;;12.20;99.90;;;;;;5105918;28;20429;-50
2022/11/14 03:38:09;;;;;;;31.88;18.98;;;12.20;99.90;;;;;;5106640;28;20032;-43
2022/11/14 03:40:39;;;;;;;32.70;19.08;;;12.20;99.90;;;;;;5108884;28;20074;-50
2022/11/14 03:43:04;;;;;;;30.10;17.75;;;12.20;99.90;;;;;;5073937;28;20028;-52
2022/11/14 03:45:30;;;;;;;28.23;16.88;;;12.20;99.90;;;;;;5097378;28;20404;-48
2022/11/14 03:47:56;;;;;;;29.83;16.77;;;12.30;99.90;;;;;;5093895;28;20069;-46
2022/11/14 03:50:21;;;;;;;29.45;18.00;;;12.30;99.90;;;;;;5083822;28;20106;-45
2022/11/14 03:52:50;;;;;;;29.05;17.85;;;12.30;99.90;;;;;;5103524;28;20030;-46
2022/11/14 03:55:16;;;;;;;32.67;18.20;;;12.30;99.90;;;;;;5108739;28;20027;-45
2022/11/14 03:57:41;;;;;;;30.83;17.90;;;12.30;99.90;;;;;;5101576;28;20031;-43
2022/11/14 04:00:09;;;;;;;28.88;17.98;;;12.30;99.90;;;;;;5110625;28;20391;-47
2022/11/14 04:02:34;;;;;;;34.63;18.77;;;12.30;99.90;;;;;;5087741;28;20070;-45
2022/11/14 04:05:00;;;;;;;29.77;17.75;;;12.30;99.90;;;;;;5111474;28;20051;-48
2022/11/14 04:07:26;;;;;;;30.83;17.77;;;12.20;99.90;;;;;;5098615;28;20024;-48
2022/11/14 04:09:51;;;;;;;35.17;18.48;;;12.20;99.90;;;;;;5111515;28;20105;-48
2022/11/14 04:12:18;;;;;;;31.08;17.52;;;12.20;99.90;;;;;;5110792;28;20062;-47
2022/11/14 04:14:43;;;;;;;37.83;20.00;;;12.20;99.90;;;;;;5111500;28;20055;-52
2022/11/14 04:17:10;;;;;;;36.53;19.90;;;12.20;99.90;;;;;;5109261;28;20066;-44
2022/11/14 04:19:36;;;;;;;32.88;18.73;;;12.30;99.90;;;;;;5111571;28;20476;-49
2022/11/14 04:22:01;;;;;;;29.98;18.20;;;12.20;99.90;;;;;;5093143;28;20066;-44
2022/11/14 04:24:27;;;;;;;34.67;19.42;;;12.20;99.90;;;;;;5078561;28;20054;-52
2022/11/14 04:26:53;;;;;;;36.95;21.00;;;12.20;99.90;;;;;;5083825;28;20385;-46
2022/11/14 04:29:19;;;;;;;38.30;21.05;;;12.20;99.90;;;;;;5106929;28;20042;-49
2022/11/14 04:31:44;;;;;;;45.63;23.45;;;12.30;99.90;;;;;;5107038;28;20035;-45
2022/11/14 04:34:10;;;;;;;40.17;21.88;;;12.30;99.90;;;;;;5111308;28;20035;-49
2022/11/14 04:36:36;;;;;;;42.25;23.52;;;12.30;99.90;;;;;;5105809;28;20077;-50
2022/11/14 04:39:01;;;;;;;41.53;23.08;;;12.40;99.90;;;;;;5111292;28;20023;-46
2022/11/14 04:41:27;;;;;;;38.05;21.90;;;12.40;99.90;;;;;;5104521;28;20688;-51
2022/11/14 04:43:53;;;;;;;43.88;22.63;;;12.40;99.90;;;;;;5111171;28;20499;-55
2022/11/14 04:46:19;;;;;;;40.85;21.55;;;12.40;99.90;;;;;;5102847;28;20023;-45
2022/11/14 04:48:44;;;;;;;42.55;23.30;;;12.40;99.90;;;;;;5111263;28;20392;-47
2022/11/14 04:51:10;;;;;;;47.20;23.10;;;12.40;99.90;;;;;;5101944;28;20040;-51
2022/11/14 04:53:36;;;;;;;41.03;20.83;;;12.40;99.90;;;;;;5111233;28;20069;-48
2022/11/14 04:56:01;;;;;;;40.78;23.00;;;12.50;99.90;;;;;;5102110;28;20106;-46
2022/11/14 04:58:27;;;;;;;39.78;21.83;;;12.50;99.90;;;;;;5089087;28;20103;-55
2022/11/14 05:00:53;;;;;;;44.00;22.60;;;12.50;99.90;;;;;;5085520;28;20111;-51
2022/11/14 05:03:18;;;;;;;36.33;22.65;;;12.50;99.90;;;;;;5107258;28;20047;-54
2022/11/14 05:05:44;;;;;;;42.25;23.60;;;12.50;99.90;;;;;;5109180;28;20088;-50
2022/11/14 05:08:10;;;;;;;41.30;23.25;;;12.50;99.90;;;;;;5109565;28;20098;-47
2022/11/14 05:10:35;;;;;;;49.75;24.58;;;12.50;99.90;;;;;;5110154;28;20028;-50
2022/11/14 05:13:01;;;;;;;38.22;22.60;;;12.60;99.90;;;;;;5107350;28;20476;-43
2022/11/14 05:15:26;;;;;;;41.05;23.23;;;12.50;99.90;;;;;;5111417;28;20078;-55
2022/11/14 05:17:52;;;;;;;42.90;24.27;;;12.50;99.90;;;;;;5105187;28;20028;-50
2022/11/14 05:20:18;;;;;;;42.03;24.88;;;12.60;99.90;;;;;;5112186;28;20050;-46
2022/11/14 05:22:43;;;;;;;44.28;23.35;;;12.60;99.90;;;;;;5103089;28;20028;-44
2022/11/14 05:25:10;;;;;;;46.17;23.80;;;12.50;99.90;;;;;;5113780;28;20039;-56
2022/11/14 05:27:35;;;;;;;49.42;24.15;;;12.50;99.90;;;;;;5087345;28;20028;-54
2022/11/14 05:30:01;;;;;;;41.85;25.23;;;12.60;99.90;;;;;;5114663;28;20501;-53
2022/11/14 05:32:26;;;;;;;41.35;23.92;;;12.60;99.90;;;;;;5091419;28;20417;-58
2022/11/14 05:34:52;;;;;;;43.58;24.38;;;12.60;99.90;;;;;;5081566;28;20366;-48
2022/11/14 05:37:18;;;;;;;42.63;23.45;;;12.60;99.90;;;;;;5092734;28;20408;-51
2022/11/14 05:39:43;;;;;;;40.33;23.85;;;12.60;99.90;;;;;;5114532;28;20027;-51
2022/11/14 05:42:09;;;;;;;51.25;24.38;;;12.60;99.90;;;;;;5110751;28;20453;-47
2022/11/14 05:44:34;;;;;;;47.30;25.38;;;12.50;99.90;;;;;;5114560;28;20381;-45
2022/11/14 05:47:00;;;;;;;44.95;24.00;;;12.60;99.90;;;;;;5100010;28;20038;-48
2022/11/14 05:49:26;;;;;;;46.92;23.88;;;12.60;99.90;;;;;;5114142;28;20062;-48
2022/11/14 05:51:51;;;;;;;40.50;22.10;;;12.60;99.90;;;;;;5105126;28;20027;-47
2022/11/14 05:54:17;;;;;;;44.08;22.90;;;12.60;99.90;;;;;;5114014;28;20059;-42
2022/11/14 05:56:42;;;;;;;45.78;24.25;;;12.60;99.90;;;;;;5103924;28;20080;-47
2022/11/14 05:59:08;;;;;;;42.75;24.63;;;12.60;99.90;;;;;;5114206;28;20032;-45
2022/11/14 06:01:34;;;;;;;35.50;22.23;;;12.50;99.90;;;;;;5102905;28;20024;-49
2022/11/14 06:03:59;;;;;;;39.13;22.75;;;12.50;99.90;;;;;;5113984;28;20032;-52
2022/11/14 06:06:25;;;;;;;39.97;24.25;;;12.50;99.90;;;;;;5102743;28;20142;-53
2022/11/14 06:08:52;;;;;;;40.17;22.25;;;12.50;99.90;;;;;;5090180;28;20124;-50
2022/11/14 06:11:20;;;;;;;39.15;22.38;;;12.60;99.90;;;;;;5086399;28;20438;-50
2022/11/14 06:13:45;;;;;;;36.28;22.38;;;12.60;99.90;;;;;;5112397;28;20504;-49
2022/11/14 06:16:17;;;;;;;33.60;20.67;;;12.50;99.90;;;;;;5103688;28;20037;-44
2022/11/14 06:18:43;;;;;;;36.15;21.70;;;12.60;99.90;;;;;;5110200;28;20433;-47
2022/11/14 06:21:17;;;;;;;36.92;21.92;;;12.50;99.90;;;;;;5103768;28;20132;-47
2022/11/14 06:23:43;;;;;;;38.70;21.70;;;12.50;99.90;;;;;;5109825;28;20011;-45
2022/11/14 06:26:29;;;;;;;36.75;22.23;;;12.50;99.90;;;;;;5096336;28;20118;-49
2022/11/14 06:28:54;;;;;;;39.47;22.55;;;12.50;99.90;;;;;;5108150;28;20498;-49
2022/11/14 06:31:21;;;;;;;40.53;21.77;;;12.50;99.90;;;;;;5111771;28;20075;-49
2022/11/14 06:33:47;;;;;;;40.42;21.70;;;12.40;99.90;;;;;;5113126;28;20024;-53
2022/11/14 06:36:13;;;;;;;39.83;23.15;;;12.40;99.90;;;;;;5110685;28;20032;-57
2022/11/14 06:38:40;;;;;;;42.55;23.35;;;12.50;99.90;;;;;;5113440;28;20430;-45
2022/11/14 06:41:11;;;;;;;37.80;22.95;;;12.50;99.90;;;;;;5109756;28;20027;-51
2022/11/14 06:43:42;;;;;;;45.25;24.20;;;12.40;99.90;;;;;;5072756;28;20021;-45
2022/11/14 06:46:09;;;;;;;41.60;22.27;;;12.40;99.90;;;;;;5100657;28;20546;-45
2022/11/14 06:48:35;;;;;;;35.70;21.27;;;12.50;99.90;;;;;;5087613;28;20019;-46
2022/11/14 06:51:03;;;;;;;44.63;23.90;;;12.50;99.90;;;;;;5101416;28;20032;-48
2022/11/14 06:53:31;;;;;;;55.08;22.58;;;12.40;99.90;;;;;;5092516;28;20107;-50
2022/11/14 06:55:59;;;;;;;39.70;22.88;;;12.50;99.90;;;;;;5086462;28;20052;-43
2022/11/14 06:58:29;;;;;;;38.63;21.85;;;12.50;99.90;;;;;;5092239;28;20024;-49
2022/11/14 07:00:55;;;;;;;60.10;23.77;;;12.40;99.90;;;;;;5085348;28;20107;-45
2022/11/14 07:03:22;;;;;;;46.13;23.10;;;12.50;99.90;;;;;;5089368;28;20100;-49
2022/11/14 07:05:47;;;;;;;50.75;23.73;;;12.40;99.90;;;;;;5086855;28;20028;-46
2022/11/14 07:08:14;;;;;;;44.78;23.77;;;12.50;99.90;;;;;;5090387;28;20069;-50
2022/11/14 07:10:40;;;;;;;39.90;23.17;;;12.40;99.90;;;;;;5087759;28;20112;-48
2022/11/14 07:13:05;;;;;;;40.78;22.25;;;12.40;99.90;;;;;;5088304;28;20099;-45
2022/11/14 07:15:31;;;;;;;66.63;23.00;;;12.40;99.90;;;;;;5082899;28;20033;-48
2022/11/14 07:17:57;;;;;;;37.90;22.40;;;12.40;99.90;;;;;;5086482;28;20028;-43
2022/11/14 07:20:23;;;;;;;36.70;21.95;;;12.40;99.90;;;;;;5090259;28;20040;-48
2022/11/14 07:22:49;;;;;;;39.60;21.63;;;12.50;99.90;;;;;;5091419;28;20028;-50
2022/11/14 07:25:15;;;;;;;43.90;23.33;;;12.50;99.90;;;;;;5090971;28;20012;-43
2022/11/14 07:27:40;;;;;;;42.75;23.42;;;12.40;99.90;;;;;;5084663;28;20395;-47
2022/11/14 07:30:06;;;;;;;64.30;25.00;;;12.50;99.90;;;;;;5090563;28;20012;-43
2022/11/14 07:32:32;;;;;;;46.30;24.10;;;12.50;99.90;;;;;;5090825;28;20028;-43
2022/11/14 07:34:57;;;;;;;44.95;22.65;;;12.50;99.90;;;;;;5091606;28;20028;-46
2022/11/14 07:37:23;;;;;;;51.15;24.08;;;12.50;99.90;;;;;;5091375;28;20012;-44
2022/11/14 07:39:49;;;;;;;40.15;22.95;;;12.50;99.90;;;;;;5091366;28;20544;-44
2022/11/14 07:42:14;;;;;;;42.33;22.80;;;12.60;99.90;;;;;;5083053;28;20036;-51
2022/11/14 07:44:40;;;;;;;43.40;23.30;;;12.60;99.90;;;;;;5089118;28;20518;-49
2022/11/14 07:47:05;;;;;;;59.10;24.42;;;12.60;99.90;;;;;;5085991;28;20111;-47
2022/11/14 07:49:31;;;;;;;54.53;22.90;;;12.60;99.90;;;;;;5079629;28;20090;-46
2022/11/14 07:51:57;;;;;;;38.95;21.90;;;12.70;99.90;;;;;;5073566;28;20041;-43
2022/11/14 07:54:22;;;;;;;47.25;22.63;;;12.70;99.90;;;;;;5087329;28;20154;-49
2022/11/14 07:56:48;;;;;;;54.67;23.17;;;12.80;99.90;;;;;;5090202;28;20396;-51
2022/11/14 07:59:13;;;;;;;39.03;21.10;;;12.70;99.90;;;;;;5090151;28;20020;-44
2022/11/14 08:01:39;;;;;;;50.25;20.08;;;12.80;99.90;;;;;;5090339;28;20435;-46
2022/11/14 08:04:05;;;;;;;57.97;20.33;;;12.80;99.90;;;;;;5091058;28;20071;-48
2022/11/14 08:06:30;;;;;;;40.88;20.20;;;12.70;99.90;;;;;;5090679;28;20036;-44
2022/11/14 08:08:56;;;;;;;37.08;19.50;;;12.80;99.90;;;;;;5090117;28;20546;-43
2022/11/14 08:11:46;;;;;;;40.78;19.77;;;12.80;99.90;;;;;;5080667;28;20060;-48
2022/11/14 08:14:07;;;;;;;73.35;26.67;;;12.80;99.90;;;;;;5089217;28;20063;-46
2022/11/14 08:16:33;;;;;;;47.75;21.85;;;12.90;99.90;;;;;;5089438;28;20059;-50
2022/11/14 08:18:59;;;;;;;58.33;22.15;;;12.90;99.90;;;;;;5090470;28;20048;-53
2022/11/14 08:21:24;;;;;;;42.33;21.88;;;12.90;99.90;;;;;;5089716;28;20504;-46
2022/11/14 08:23:50;;;;;;;40.75;20.90;;;12.90;99.90;;;;;;5090194;28;20603;-46
2022/11/14 08:26:16;;;;;;;45.75;21.80;;;12.90;99.90;;;;;;5088411;28;20016;-49
2022/11/14 08:28:41;;;;;;;52.47;20.58;;;13.00;99.90;;;;;;5089030;28;20016;-49
2022/11/14 08:31:09;;;;;;;42.90;21.20;;;13.00;99.90;;;;;;5088943;28;20037;-50
2022/11/14 08:33:34;;;;;;;41.33;21.10;;;13.00;99.90;;;;;;5090466;28;20396;-56
2022/11/14 08:36:04;;;;;;;43.08;21.05;;;13.00;99.90;;;;;;5089736;28;20020;-56
2022/11/14 08:38:31;;;;;;;47.10;20.80;;;13.00;99.90;;;;;;5090697;28;20060;-47
2022/11/14 08:40:58;;;;;;;44.42;21.10;;;13.10;99.90;;;;;;5091255;28;20059;-49
2022/11/14 08:43:24;;;;;;;42.25;21.55;;;13.10;99.90;;;;;;5094727;28;20426;-51
2022/11/14 08:45:49;;;;;;;43.22;20.85;;;13.10;99.90;;;;;;5100732;28;20028;-47
2022/11/14 08:48:15;;;;;;;43.08;21.27;;;13.20;99.90;;;;;;5113579;28;20019;-55
2022/11/14 08:50:41;;;;;;;41.70;20.17;;;13.20;99.90;;;;;;5109157;28;20028;-51
2022/11/14 08:53:06;;;;;;;38.70;20.23;;;13.20;99.90;;;;;;5111500;28;20098;-44
2022/11/14 08:55:32;;;;;;;42.92;19.33;;;13.20;99.90;;;;;;5110670;28;20020;-49
2022/11/14 08:57:58;;;;;;;40.42;20.15;;;13.30;99.90;;;;;;5109276;28;20027;-46
2022/11/14 09:00:23;;;;;;;39.50;18.90;;;13.30;99.90;;;;;;5111299;28;20499;-50
2022/11/14 09:02:49;;;;;;;37.85;18.63;;;13.40;99.90;;;;;;5095439;28;20095;-50
2022/11/14 09:05:15;;;;;;;38.22;20.50;;;13.40;99.90;;;;;;5092977;28;20119;-52
2022/11/14 09:07:40;;;;;;;37.00;19.45;;;13.50;99.90;;;;;;5092297;28;20434;-52
2022/11/14 09:10:07;;;;;;;35.40;18.80;;;13.60;99.90;;;;;;5094062;28;20069;-45
2022/11/14 09:12:33;;;;;;;36.67;19.05;;;13.50;99.90;;;;;;5094417;28;20067;-47
2022/11/14 09:14:59;;;;;;;33.72;17.77;;;13.60;99.90;;;;;;5093924;28;20433;-48
2022/11/14 09:17:24;;;;;;;35.67;17.33;;;13.70;99.90;;;;;;5094249;28;20059;-45
2022/11/14 09:19:50;;;;;;;28.63;17.52;;;13.80;99.90;;;;;;5094307;28;20032;-44
2022/11/14 09:22:16;;;;;;;28.35;17.50;;;13.80;99.90;;;;;;5093768;28;20043;-48
2022/11/14 09:24:42;;;;;;;26.58;15.57;;;13.90;99.90;;;;;;5093866;28;20028;-45
2022/11/14 09:27:07;;;;;;;24.05;15.23;;;14.00;99.90;;;;;;5093558;28;20122;-49
2022/11/14 09:29:33;;;;;;;25.58;15.95;;;14.00;99.90;;;;;;5093060;28;20874;-53
2022/11/14 09:31:58;;;;;;;23.17;14.52;;;14.20;99.90;;;;;;5080305;28;20055;-50
2022/11/14 09:34:24;;;;;;;24.15;15.35;;;14.40;99.90;;;;;;5088218;28;20025;-40
2022/11/14 09:36:50;;;;;;;21.85;13.73;;;14.60;99.90;;;;;;5085699;28;20115;-51
2022/11/14 09:39:15;;;;;;;23.48;13.95;;;14.70;99.90;;;;;;5090986;28;20392;-52
2022/11/14 09:41:51;;;;;;;25.95;14.25;;;15.00;99.90;;;;;;5084585;28;20409;-49
2022/11/14 09:44:28;;;;;;;19.85;13.60;;;15.20;99.90;;;;;;5089460;28;20051;-54
2022/11/14 09:47:09;;;;;;;18.98;12.65;;;15.60;99.90;;;;;;5074581;28;20089;-51
2022/11/14 09:49:39;;;;;;;23.35;11.23;;;16.30;99.90;;;;;;5081273;28;20477;-54
2022/11/14 09:52:12;;;;;;;;;;;18.20;99.90;;;;;;5107718;28;20134;-52
2022/11/14 09:54:55;;;;;;;14.40;8.85;;;20.30;99.90;;;;;;5102288;28;19912;-47
2022/11/14 09:57:20;;;;;;;12.77;8.30;;;22.40;99.90;;;;;;5076177;28;20370;-46
2022/11/14 09:59:48;;;;;;;11.25;7.22;;;23.30;99.90;;;;;;5077133;28;20024;-45
2022/11/14 10:02:18;;;;;;;12.10;6.65;;;24.50;99.90;;;;;;5081395;28;20214;-48
2022/11/14 10:05:15;;;;;;;12.50;7.22;;;25.90;97.10;;;;;;5078796;28;20029;-47
2022/11/14 10:08:12;;;;;;;11.48;7.00;;;26.30;94.90;;;;;;5095689;28;20345;-54
2022/11/14 10:10:58;;;;;;;11.57;6.15;;;26.90;92.50;;;;;;5084382;28;20123;-47
2022/11/14 10:13:37;;;;;;;9.65;6.53;;;26.90;91.00;;;;;;5090037;28;20098;-53
2022/11/14 10:16:05;;;;;;;12.13;6.93;;;27.30;91.00;;;;;;5092242;28;20020;-54
2022/11/14 10:18:45;;;;;;;10.85;7.30;;;27.90;88.40;;;;;;5085402;28;20490;-49
2022/11/14 10:21:22;;;;;;;12.07;7.53;;;28.20;87.40;;;;;;5079807;28;20070;-51
2022/11/14 10:24:03;;;;;;;10.38;7.43;;;28.60;84.30;;;;;;5076217;28;20025;-42
2022/11/14 10:26:31;;;;;;;9.90;7.15;;;29.30;83.20;;;;;;5077782;28;20101;-48
2022/11/14 10:29:14;;;;;;;11.05;7.45;;;29.70;80.80;;;;;;5092872;28;20021;-52
2022/11/14 10:31:42;;;;;;;9.40;6.85;;;28.70;77.40;;;;;;5091201;28;20397;-45
2022/11/14 10:34:20;;;;;;;9.52;6.53;;;28.60;78.00;;;;;;5092712;28;20020;-46
2022/11/14 10:36:59;;;;;;;9.88;6.65;;;28.60;77.70;;;;;;5087059;28;20519;-55
2022/11/14 10:39:53;;;;;;;12.60;7.00;;;29.70;77.90;;;;;;5089930;28;20031;-45
2022/11/14 10:42:29;;;;;;;12.02;7.22;;;30.30;74.60;;;;;;5080996;28;20028;-48
2022/11/14 10:45:21;;;;;;;12.07;8.02;;;30.40;72.70;;;;;;5097699;28;20030;-41
2022/11/14 10:47:55;;;;;;;10.32;7.28;;;30.50;72.70;;;;;;5112704;28;20475;-45
2022/11/14 10:50:32;;;;;;;9.55;7.30;;;30.30;72.10;;;;;;5112732;28;20063;-50
2022/11/14 10:53:02;;;;;;;10.35;6.53;;;30.10;73.20;;;;;;5112959;28;20032;-45
2022/11/14 10:55:28;;;;;;;8.80;6.07;;;31.30;70.10;;;;;;5111297;28;20608;-44
2022/11/14 10:57:54;;;;;;;10.50;6.10;;;30.10;69.30;;;;;;5112421;28;20153;-50
2022/11/14 11:00:24;;;;;;;9.35;6.32;;;29.80;70.60;;;;;;5112585;28;20026;-50
2022/11/14 11:02:55;;;;;;;11.75;6.07;;;30.20;70.20;;;;;;5112528;28;20020;-56
2022/11/14 11:05:24;;;;;;;9.30;5.05;;;30.80;70.50;;;;;;5109694;28;20035;-47
2022/11/14 11:13:47;;;;;;;7.53;5.85;;;30.00;68.70;;;;;;5110447;28;20042;-43
2022/11/14 11:16:13;;;;;;;10.68;5.85;;;29.30;69.80;;;;;;5110339;28;20507;-52
2022/11/14 11:18:38;;;;;;;8.60;5.88;;;28.10;73.20;;;;;;5110085;28;20101;-51
2022/11/14 11:21:09;;;;;;;8.20;5.28;;;28.10;72.50;;;;;;5110334;28;20039;-55
2022/11/14 11:23:36;;;;;;;10.02;6.03;;;28.90;71.70;;;;;;5110878;28;20024;-51
2022/11/14 11:26:15;;;;;;;8.30;4.80;;;29.10;71.60;;;;;;5112043;28;20107;-54
2022/11/14 11:28:40;;;;;;;9.63;5.43;;;30.00;70.40;;;;;;5112053;28;20023;-49
2022/11/14 11:31:09;;;;;;;7.53;4.47;;;30.50;68.40;;;;;;5111741;28;20176;-45
2022/11/14 11:33:38;;;;;;;8.43;4.93;;;30.20;68.20;;;;;;5112028;28;20028;-55
2022/11/14 11:36:12;;;;;;;8.35;4.72;;;30.10;67.90;;;;;;5080472;28;20380;-49
2022/11/14 11:38:38;;;;;;;12.88;4.80;;;29.60;69.20;;;;;;5085971;28;20047;-52
2022/11/14 11:41:16;;;;;;;8.80;5.03;;;29.70;68.50;;;;;;5081705;28;20015;-48
2022/11/14 11:43:47;;;;;;;8.90;5.03;;;30.30;67.20;;;;;;5097977;28;20031;-56
2022/11/14 11:46:18;;;;;;;7.38;5.20;;;29.00;66.80;;;;;;5109765;27;20482;-50
2022/11/14 11:48:47;;;;;;;9.18;4.68;;;26.80;71.60;;;;;;5111566;28;20035;-47
2022/11/14 11:51:18;;;;;;;9.15;5.00;;;24.80;77.90;;;;;;5101238;28;20028;-53
2022/11/14 11:54:10;;;;;;;9.35;4.40;;;23.50;82.70;;;;;;5082545;28;20032;-55
2022/11/14 11:56:37;;;;;;;8.05;5.40;;;22.20;86.40;;;;;;5081004;28;20412;-45
2022/11/14 11:59:15;;;;;;;9.48;4.75;;;22.30;88.70;;;;;;5090879;28;20031;-53
2022/11/14 12:01:40;;;;;;;7.35;4.70;;;23.20;87.10;;;;;;5085034;28;20134;-49
2022/11/14 12:04:06;;;;;;;9.30;5.20;;;23.10;86.10;;;;;;5090893;28;20201;-51
2022/11/14 12:06:43;;;;;;;11.07;4.20;;;22.50;87.00;;;;;;5087667;28;20035;-44
2022/11/14 12:09:28;;;;;;;7.25;3.92;;;22.40;87.60;;;;;;5090047;28;20016;-47
2022/11/14 12:12:05;;;;;;;7.28;3.70;;;23.30;85.90;;;;;;5089503;28;20032;-50
2022/11/14 12:14:51;;;;;;;6.07;3.53;;;25.10;81.40;;;;;;5089068;28;20484;-47
2022/11/14 12:17:25;;;;;;;9.68;3.40;;;26.60;75.70;;;;;;5090493;28;20032;-49
2022/11/14 12:20:29;;;;;;;8.35;3.33;;;27.40;72.40;;;;;;5075613;28;20020;-54
2022/11/14 12:23:03;;;;;;;7.65;3.47;;;27.60;70.30;;;;;;5090571;28;20032;-46
2022/11/14 12:25:32;;;;;;;8.13;3.50;;;27.60;71.00;;;;;;5087511;28;20062;-46
2022/11/14 12:28:19;;;;;;;8.52;3.30;;;27.20;71.00;;;;;;5090353;28;20036;-54
2022/11/14 12:30:48;;;;;;;6.90;3.45;;;27.70;71.20;;;;;;5082402;28;20032;-46
2022/11/14 12:33:16;;;;;;;7.90;3.55;;;28.40;70.30;;;;;;5090533;28;20024;-50
2022/11/14 12:35:50;;;;;;;6.78;3.35;;;28.00;69.70;;;;;;5080482;28;20104;-48
2022/11/14 12:38:19;;;;;;;7.40;3.50;;;27.20;70.70;;;;;;5081848;28;20398;-52
2022/11/14 12:40:51;;;;;;;5.75;3.50;;;26.30;72.20;;;;;;5084096;28;20492;-52
2022/11/14 12:43:34;;;;;;;6.28;3.53;;;26.10;75.70;;;;;;5090400;28;20016;-51